sensor_id;sensor_type;location;lat;lon;timestamp;temperature;humidity
66708;DHT22;53622;0.000;0.000;2022-07-12T00:00:28;21.70;88.80
66708;DHT22;53622;0.000;0.000;2022-07-12T00:02:59;21.70;88.80
66708;DHT22;53622;0.000;0.000;2022-07-12T00:05:28;21.70;88.80
66708;DHT22;53622;0.000;0.000;2022-07-12T00:07:57;21.70;89.40
66708;DHT22;53622;0.000;0.000;2022-07-12T00:10:28;21.70;89.00
66708;DHT22;53622;0.000;0.000;2022-07-12T00:12:58;21.70;89.10
66708;DHT22;53622;0.000;0.000;2022-07-12T00:15:28;21.60;88.90
66708;DHT22;53622;0.000;0.000;2022-07-12T00:17:58;21.70;89.00
66708;DHT22;53622;0.000;0.000;2022-07-12T00:20:27;21.70;89.20
66708;DHT22;53622;0.000;0.000;2022-07-12T00:22:57;21.70;89.00
66708;DHT22;53622;0.000;0.000;2022-07-12T00:25:27;21.60;88.90
66708;DHT22;53622;0.000;0.000;2022-07-12T00:27:56;21.60;89.30
66708;DHT22;53622;0.000;0.000;2022-07-12T00:30:26;21.60;89.10
66708;DHT22;53622;0.000;0.000;2022-07-12T00:32:56;21.60;89.40
66708;DHT22;53622;0.000;0.000;2022-07-12T00:35:25;21.70;89.00
66708;DHT22;53622;0.000;0.000;2022-07-12T00:37:54;21.60;89.20
66708;DHT22;53622;0.000;0.000;2022-07-12T00:40:23;21.60;89.20
66708;DHT22;53622;0.000;0.000;2022-07-12T00:42:54;21.70;89.10
66708;DHT22;53622;0.000;0.000;2022-07-12T00:45:23;21.70;89.10
66708;DHT22;53622;0.000;0.000;2022-07-12T00:47:53;21.70;89.40
66708;DHT22;53622;0.000;0.000;2022-07-12T00:50:23;21.60;89.20
66708;DHT22;53622;0.000;0.000;2022-07-12T00:52:54;21.60;89.30
66708;DHT22;53622;0.000;0.000;2022-07-12T00:55:24;21.60;89.50
66708;DHT22;53622;0.000;0.000;2022-07-12T00:57:55;21.60;89.50
66708;DHT22;53622;0.000;0.000;2022-07-12T01:00:25;21.60;89.70
66708;DHT22;53622;0.000;0.000;2022-07-12T01:02:56;21.60;89.50
66708;DHT22;53622;0.000;0.000;2022-07-12T01:05:27;21.60;89.60
66708;DHT22;53622;0.000;0.000;2022-07-12T01:07:56;21.60;89.40
66708;DHT22;53622;0.000;0.000;2022-07-12T01:10:26;21.60;89.90
66708;DHT22;53622;0.000;0.000;2022-07-12T01:12:58;21.60;89.30
66708;DHT22;53622;0.000;0.000;2022-07-12T01:15:29;21.60;89.40
66708;DHT22;53622;0.000;0.000;2022-07-12T01:18:00;21.60;89.90
66708;DHT22;53622;0.000;0.000;2022-07-12T01:20:30;21.60;89.80
66708;DHT22;53622;0.000;0.000;2022-07-12T01:23:02;21.60;89.90
66708;DHT22;53622;0.000;0.000;2022-07-12T01:25:32;21.60;89.60
66708;DHT22;53622;0.000;0.000;2022-07-12T01:28:02;21.60;90.00
66708;DHT22;53622;0.000;0.000;2022-07-12T01:30:31;21.60;89.60
66708;DHT22;53622;0.000;0.000;2022-07-12T01:33:01;21.60;89.90
66708;DHT22;53622;0.000;0.000;2022-07-12T01:35:30;21.60;89.70
66708;DHT22;53622;0.000;0.000;2022-07-12T01:38:02;21.60;89.60
66708;DHT22;53622;0.000;0.000;2022-07-12T01:40:32;21.60;89.20
66708;DHT22;53622;0.000;0.000;2022-07-12T01:43:03;21.40;86.00
66708;DHT22;53622;0.000;0.000;2022-07-12T01:45:33;21.30;85.50
66708;DHT22;53622;0.000;0.000;2022-07-12T01:48:03;21.10;85.90
66708;DHT22;53622;0.000;0.000;2022-07-12T01:50:32;21.00;86.20
66708;DHT22;53622;0.000;0.000;2022-07-12T01:53:05;20.90;86.30
66708;DHT22;53622;0.000;0.000;2022-07-12T01:55:36;20.80;86.90
66708;DHT22;53622;0.000;0.000;2022-07-12T01:58:07;20.70;87.70
66708;DHT22;53622;0.000;0.000;2022-07-12T02:00:36;20.60;88.10
66708;DHT22;53622;0.000;0.000;2022-07-12T02:03:06;20.60;88.30
66708;DHT22;53622;0.000;0.000;2022-07-12T02:05:35;20.60;88.40
66708;DHT22;53622;0.000;0.000;2022-07-12T02:08:06;20.50;88.50
66708;DHT22;53622;0.000;0.000;2022-07-12T02:10:35;20.50;88.40
66708;DHT22;53622;0.000;0.000;2022-07-12T02:13:05;20.50;88.80
66708;DHT22;53622;0.000;0.000;2022-07-12T02:15:34;20.50;88.50
66708;DHT22;53622;0.000;0.000;2022-07-12T02:18:03;20.40;88.70
66708;DHT22;53622;0.000;0.000;2022-07-12T02:20:33;20.40;88.80
66708;DHT22;53622;0.000;0.000;2022-07-12T02:23:02;20.40;88.90
66708;DHT22;53622;0.000;0.000;2022-07-12T02:25:34;20.40;89.00
66708;DHT22;53622;0.000;0.000;2022-07-12T02:28:03;20.30;88.90
66708;DHT22;53622;0.000;0.000;2022-07-12T02:30:32;20.30;89.00
66708;DHT22;53622;0.000;0.000;2022-07-12T02:33:02;20.20;89.30
66708;DHT22;53622;0.000;0.000;2022-07-12T02:35:31;20.20;88.60
66708;DHT22;53622;0.000;0.000;2022-07-12T02:38:00;20.10;88.90
66708;DHT22;53622;0.000;0.000;2022-07-12T02:40:30;20.10;89.00
66708;DHT22;53622;0.000;0.000;2022-07-12T02:43:18;20.10;89.00
66708;DHT22;53622;0.000;0.000;2022-07-12T02:45:47;20.10;88.90
66708;DHT22;53622;0.000;0.000;2022-07-12T02:48:16;20.00;89.00
66708;DHT22;53622;0.000;0.000;2022-07-12T02:50:46;20.00;89.80
66708;DHT22;53622;0.000;0.000;2022-07-12T02:53:16;19.90;90.00
66708;DHT22;53622;0.000;0.000;2022-07-12T02:55:45;19.90;90.10
66708;DHT22;53622;0.000;0.000;2022-07-12T02:58:15;19.90;90.00
66708;DHT22;53622;0.000;0.000;2022-07-12T03:00:45;19.90;89.80
66708;DHT22;53622;0.000;0.000;2022-07-12T03:03:15;19.80;89.60
66708;DHT22;53622;0.000;0.000;2022-07-12T03:05:45;19.80;89.20
66708;DHT22;53622;0.000;0.000;2022-07-12T03:08:14;19.80;89.30
66708;DHT22;53622;0.000;0.000;2022-07-12T03:10:43;19.80;89.30
66708;DHT22;53622;0.000;0.000;2022-07-12T03:13:12;19.80;88.40
66708;DHT22;53622;0.000;0.000;2022-07-12T03:15:42;19.80;88.20
66708;DHT22;53622;0.000;0.000;2022-07-12T03:18:15;19.80;88.20
66708;DHT22;53622;0.000;0.000;2022-07-12T03:20:45;19.70;88.70
66708;DHT22;53622;0.000;0.000;2022-07-12T03:23:16;19.70;89.40
66708;DHT22;53622;0.000;0.000;2022-07-12T03:25:45;19.60;89.70
66708;DHT22;53622;0.000;0.000;2022-07-12T03:28:14;19.60;90.00
66708;DHT22;53622;0.000;0.000;2022-07-12T03:30:44;19.60;90.00
66708;DHT22;53622;0.000;0.000;2022-07-12T03:33:14;19.60;90.10
66708;DHT22;53622;0.000;0.000;2022-07-12T03:35:44;19.60;90.00
66708;DHT22;53622;0.000;0.000;2022-07-12T03:38:13;19.60;90.00
66708;DHT22;53622;0.000;0.000;2022-07-12T03:40:42;19.60;89.60
66708;DHT22;53622;0.000;0.000;2022-07-12T03:43:12;19.60;89.30
66708;DHT22;53622;0.000;0.000;2022-07-12T03:45:41;19.50;89.60
66708;DHT22;53622;0.000;0.000;2022-07-12T03:48:10;19.50;89.70
66708;DHT22;53622;0.000;0.000;2022-07-12T03:50:41;19.50;89.60
66708;DHT22;53622;0.000;0.000;2022-07-12T03:53:10;19.50;89.00
66708;DHT22;53622;0.000;0.000;2022-07-12T03:55:39;19.50;89.70
66708;DHT22;53622;0.000;0.000;2022-07-12T03:58:09;19.40;90.00
66708;DHT22;53622;0.000;0.000;2022-07-12T04:00:38;19.40;90.00
66708;DHT22;53622;0.000;0.000;2022-07-12T04:03:08;19.50;90.00
66708;DHT22;53622;0.000;0.000;2022-07-12T04:05:38;19.50;90.10
66708;DHT22;53622;0.000;0.000;2022-07-12T04:08:08;19.50;90.10
66708;DHT22;53622;0.000;0.000;2022-07-12T04:10:37;19.50;90.20
66708;DHT22;53622;0.000;0.000;2022-07-12T04:13:07;19.50;90.20
66708;DHT22;53622;0.000;0.000;2022-07-12T04:15:36;19.60;90.20
66708;DHT22;53622;0.000;0.000;2022-07-12T04:18:05;19.60;90.20
66708;DHT22;53622;0.000;0.000;2022-07-12T04:20:35;19.60;90.40
66708;DHT22;53622;0.000;0.000;2022-07-12T04:23:04;19.60;90.30
66708;DHT22;53622;0.000;0.000;2022-07-12T04:25:34;19.60;90.60
66708;DHT22;53622;0.000;0.000;2022-07-12T04:28:04;19.60;90.70
66708;DHT22;53622;0.000;0.000;2022-07-12T04:30:33;19.60;90.60
66708;DHT22;53622;0.000;0.000;2022-07-12T04:33:03;19.60;90.60
66708;DHT22;53622;0.000;0.000;2022-07-12T04:35:33;19.60;90.70
66708;DHT22;53622;0.000;0.000;2022-07-12T04:38:02;19.70;90.60
66708;DHT22;53622;0.000;0.000;2022-07-12T04:40:33;19.70;90.60
66708;DHT22;53622;0.000;0.000;2022-07-12T04:43:03;19.80;90.60
66708;DHT22;53622;0.000;0.000;2022-07-12T04:45:32;19.70;91.10
66708;DHT22;53622;0.000;0.000;2022-07-12T04:48:01;19.80;90.80
66708;DHT22;53622;0.000;0.000;2022-07-12T04:50:30;19.70;90.80
66708;DHT22;53622;0.000;0.000;2022-07-12T04:53:00;19.70;90.90
66708;DHT22;53622;0.000;0.000;2022-07-12T04:55:29;19.80;90.80
66708;DHT22;53622;0.000;0.000;2022-07-12T04:58:00;19.80;90.60
66708;DHT22;53622;0.000;0.000;2022-07-12T05:00:29;19.80;90.60
66708;DHT22;53622;0.000;0.000;2022-07-12T05:02:59;19.80;90.60
66708;DHT22;53622;0.000;0.000;2022-07-12T05:05:28;19.80;90.60
66708;DHT22;53622;0.000;0.000;2022-07-12T05:07:57;19.90;90.50
66708;DHT22;53622;0.000;0.000;2022-07-12T05:10:26;19.90;90.50
66708;DHT22;53622;0.000;0.000;2022-07-12T05:12:56;19.90;90.40
66708;DHT22;53622;0.000;0.000;2022-07-12T05:15:26;20.00;90.30
66708;DHT22;53622;0.000;0.000;2022-07-12T05:17:56;20.00;90.20
66708;DHT22;53622;0.000;0.000;2022-07-12T05:20:25;20.10;90.00
66708;DHT22;53622;0.000;0.000;2022-07-12T05:22:54;20.10;89.80
66708;DHT22;53622;0.000;0.000;2022-07-12T05:25:23;20.10;89.60
66708;DHT22;53622;0.000;0.000;2022-07-12T05:27:53;20.20;89.60
66708;DHT22;53622;0.000;0.000;2022-07-12T05:30:22;20.20;89.60
66708;DHT22;53622;0.000;0.000;2022-07-12T05:32:54;20.20;89.80
66708;DHT22;53622;0.000;0.000;2022-07-12T05:35:24;20.30;89.40
66708;DHT22;53622;0.000;0.000;2022-07-12T05:37:54;20.30;89.30
66708;DHT22;53622;0.000;0.000;2022-07-12T05:40:23;20.30;89.30
66708;DHT22;53622;0.000;0.000;2022-07-12T05:42:52;20.30;89.20
66708;DHT22;53622;0.000;0.000;2022-07-12T05:45:22;20.30;89.20
66708;DHT22;53622;0.000;0.000;2022-07-12T05:47:51;20.40;89.30
66708;DHT22;53622;0.000;0.000;2022-07-12T05:50:22;20.40;89.20
66708;DHT22;53622;0.000;0.000;2022-07-12T05:52:52;20.40;89.10
66708;DHT22;53622;0.000;0.000;2022-07-12T05:55:44;20.40;89.00
66708;DHT22;53622;0.000;0.000;2022-07-12T05:58:13;20.40;88.90
66708;DHT22;53622;0.000;0.000;2022-07-12T06:00:43;20.40;88.90
66708;DHT22;53622;0.000;0.000;2022-07-12T06:03:12;20.40;88.80
66708;DHT22;53622;0.000;0.000;2022-07-12T06:05:44;20.50;88.70
66708;DHT22;53622;0.000;0.000;2022-07-12T06:08:13;20.50;88.70
66708;DHT22;53622;0.000;0.000;2022-07-12T06:10:42;20.50;88.70
66708;DHT22;53622;0.000;0.000;2022-07-12T06:13:11;20.50;88.80
66708;DHT22;53622;0.000;0.000;2022-07-12T06:15:41;20.50;88.50
66708;DHT22;53622;0.000;0.000;2022-07-12T06:18:10;20.50;88.50
66708;DHT22;53622;0.000;0.000;2022-07-12T06:20:40;20.50;88.70
66708;DHT22;53622;0.000;0.000;2022-07-12T06:23:11;20.50;88.40
66708;DHT22;53622;0.000;0.000;2022-07-12T06:25:40;20.50;88.20
66708;DHT22;53622;0.000;0.000;2022-07-12T06:28:11;20.60;88.30
66708;DHT22;53622;0.000;0.000;2022-07-12T06:30:41;20.60;88.20
66708;DHT22;53622;0.000;0.000;2022-07-12T06:33:10;20.60;88.10
66708;DHT22;53622;0.000;0.000;2022-07-12T06:35:39;20.60;88.00
66708;DHT22;53622;0.000;0.000;2022-07-12T06:38:10;20.60;88.10
66708;DHT22;53622;0.000;0.000;2022-07-12T06:40:39;20.60;88.00
66708;DHT22;53622;0.000;0.000;2022-07-12T06:43:09;20.60;87.90
66708;DHT22;53622;0.000;0.000;2022-07-12T06:45:39;20.60;87.80
66708;DHT22;53622;0.000;0.000;2022-07-12T06:48:08;20.60;87.80
66708;DHT22;53622;0.000;0.000;2022-07-12T06:50:38;20.70;87.80
66708;DHT22;53622;0.000;0.000;2022-07-12T06:53:07;20.70;87.80
66708;DHT22;53622;0.000;0.000;2022-07-12T06:55:38;20.70;87.60
66708;DHT22;53622;0.000;0.000;2022-07-12T06:58:07;20.70;87.60
66708;DHT22;53622;0.000;0.000;2022-07-12T07:00:36;20.70;87.60
66708;DHT22;53622;0.000;0.000;2022-07-12T07:03:06;20.70;87.60
66708;DHT22;53622;0.000;0.000;2022-07-12T07:05:35;20.70;87.60
66708;DHT22;53622;0.000;0.000;2022-07-12T07:08:05;20.70;87.60
66708;DHT22;53622;0.000;0.000;2022-07-12T07:10:38;20.70;87.60
66708;DHT22;53622;0.000;0.000;2022-07-12T07:13:08;20.70;87.50
66708;DHT22;53622;0.000;0.000;2022-07-12T07:15:39;20.70;87.50
66708;DHT22;53622;0.000;0.000;2022-07-12T07:18:09;20.70;87.50
66708;DHT22;53622;0.000;0.000;2022-07-12T07:20:39;20.80;87.50
66708;DHT22;53622;0.000;0.000;2022-07-12T07:23:08;20.80;87.50
66708;DHT22;53622;0.000;0.000;2022-07-12T07:25:43;20.80;87.40
66708;DHT22;53622;0.000;0.000;2022-07-12T07:28:13;20.80;87.30
66708;DHT22;53622;0.000;0.000;2022-07-12T07:30:54;20.80;87.30
66708;DHT22;53622;0.000;0.000;2022-07-12T07:33:24;20.80;87.30
66708;DHT22;53622;0.000;0.000;2022-07-12T07:35:54;20.80;87.20
66708;DHT22;53622;0.000;0.000;2022-07-12T07:38:23;20.80;87.30
66708;DHT22;53622;0.000;0.000;2022-07-12T07:40:54;20.80;87.30
66708;DHT22;53622;0.000;0.000;2022-07-12T07:43:23;20.80;87.30
66708;DHT22;53622;0.000;0.000;2022-07-12T07:45:53;20.90;87.30
66708;DHT22;53622;0.000;0.000;2022-07-12T07:48:22;20.90;87.30
66708;DHT22;53622;0.000;0.000;2022-07-12T07:50:53;20.90;87.30
66708;DHT22;53622;0.000;0.000;2022-07-12T07:53:23;20.90;87.30
66708;DHT22;53622;0.000;0.000;2022-07-12T07:55:55;20.90;87.40
66708;DHT22;53622;0.000;0.000;2022-07-12T07:58:25;20.90;87.30
66708;DHT22;53622;0.000;0.000;2022-07-12T08:00:54;20.90;87.30
66708;DHT22;53622;0.000;0.000;2022-07-12T08:03:23;20.90;87.40
66708;DHT22;53622;0.000;0.000;2022-07-12T08:05:53;20.90;87.30
66708;DHT22;53622;0.000;0.000;2022-07-12T08:08:25;20.90;87.40
66708;DHT22;53622;0.000;0.000;2022-07-12T08:11:16;20.90;87.40
66708;DHT22;53622;0.000;0.000;2022-07-12T08:13:45;20.90;87.50
66708;DHT22;53622;0.000;0.000;2022-07-12T08:16:14;20.90;87.90
66708;DHT22;53622;0.000;0.000;2022-07-12T08:18:44;20.90;88.40
66708;DHT22;53622;0.000;0.000;2022-07-12T08:21:13;20.90;87.40
66708;DHT22;53622;0.000;0.000;2022-07-12T08:23:43;20.90;87.40
66708;DHT22;53622;0.000;0.000;2022-07-12T08:26:12;20.90;87.40
66708;DHT22;53622;0.000;0.000;2022-07-12T08:28:43;20.90;87.50
66708;DHT22;53622;0.000;0.000;2022-07-12T08:31:12;20.90;87.40
66708;DHT22;53622;0.000;0.000;2022-07-12T08:33:42;20.90;87.30
66708;DHT22;53622;0.000;0.000;2022-07-12T08:36:11;20.90;87.30
66708;DHT22;53622;0.000;0.000;2022-07-12T08:38:40;21.00;87.40
66708;DHT22;53622;0.000;0.000;2022-07-12T08:41:12;21.00;87.50
66708;DHT22;53622;0.000;0.000;2022-07-12T08:43:44;21.00;87.40
66708;DHT22;53622;0.000;0.000;2022-07-12T08:46:14;21.00;87.40
66708;DHT22;53622;0.000;0.000;2022-07-12T08:48:44;21.00;87.50
66708;DHT22;53622;0.000;0.000;2022-07-12T08:51:15;21.00;87.50
66708;DHT22;53622;0.000;0.000;2022-07-12T08:53:47;21.00;87.40
66708;DHT22;53622;0.000;0.000;2022-07-12T08:56:32;21.00;87.40
66708;DHT22;53622;0.000;0.000;2022-07-12T08:59:14;21.00;87.50
66708;DHT22;53622;0.000;0.000;2022-07-12T09:01:46;21.00;87.60
66708;DHT22;53622;0.000;0.000;2022-07-12T09:04:19;21.00;87.40
66708;DHT22;53622;0.000;0.000;2022-07-12T09:06:48;21.00;87.50
66708;DHT22;53622;0.000;0.000;2022-07-12T09:09:27;21.00;87.50
66708;DHT22;53622;0.000;0.000;2022-07-12T09:11:57;21.00;87.60
66708;DHT22;53622;0.000;0.000;2022-07-12T09:14:28;21.00;87.60
66708;DHT22;53622;0.000;0.000;2022-07-12T09:17:00;21.00;87.50
66708;DHT22;53622;0.000;0.000;2022-07-12T09:19:30;21.00;87.40
66708;DHT22;53622;0.000;0.000;2022-07-12T09:22:00;21.10;87.50
66708;DHT22;53622;0.000;0.000;2022-07-12T09:24:30;21.00;87.80
66708;DHT22;53622;0.000;0.000;2022-07-12T09:27:02;21.10;87.50
66708;DHT22;53622;0.000;0.000;2022-07-12T09:29:46;21.10;87.50
66708;DHT22;53622;0.000;0.000;2022-07-12T09:32:15;21.10;87.50
66708;DHT22;53622;0.000;0.000;2022-07-12T09:35:02;21.00;87.40
66708;DHT22;53622;0.000;0.000;2022-07-12T09:37:49;21.10;87.40
66708;DHT22;53622;0.000;0.000;2022-07-12T09:40:20;21.10;87.60
66708;DHT22;53622;0.000;0.000;2022-07-12T09:42:50;21.10;87.50
66708;DHT22;53622;0.000;0.000;2022-07-12T09:45:22;21.10;87.50
66708;DHT22;53622;0.000;0.000;2022-07-12T09:47:53;21.10;87.50
66708;DHT22;53622;0.000;0.000;2022-07-12T09:50:23;21.10;87.50
66708;DHT22;53622;0.000;0.000;2022-07-12T09:52:54;21.10;87.50
66708;DHT22;53622;0.000;0.000;2022-07-12T09:55:30;21.10;87.40
66708;DHT22;53622;0.000;0.000;2022-07-12T09:58:02;21.10;87.40
66708;DHT22;53622;0.000;0.000;2022-07-12T10:00:35;21.10;88.20
66708;DHT22;53622;0.000;0.000;2022-07-12T10:03:05;21.10;87.50
66708;DHT22;53622;0.000;0.000;2022-07-12T10:05:38;21.10;87.50
66708;DHT22;53622;0.000;0.000;2022-07-12T10:08:09;21.10;87.40
66708;DHT22;53622;0.000;0.000;2022-07-12T10:10:39;21.10;87.50
66708;DHT22;53622;0.000;0.000;2022-07-12T10:13:09;21.10;87.50
66708;DHT22;53622;0.000;0.000;2022-07-12T10:15:40;21.20;87.50
66708;DHT22;53622;0.000;0.000;2022-07-12T10:18:16;21.20;87.50
66708;DHT22;53622;0.000;0.000;2022-07-12T10:20:46;21.20;87.40
66708;DHT22;53622;0.000;0.000;2022-07-12T10:23:33;21.20;87.50
66708;DHT22;53622;0.000;0.000;2022-07-12T10:26:25;21.20;87.60
66708;DHT22;53622;0.000;0.000;2022-07-12T10:29:02;21.20;87.50
66708;DHT22;53622;0.000;0.000;2022-07-12T10:31:36;21.20;87.90
66708;DHT22;53622;0.000;0.000;2022-07-12T10:34:13;21.30;88.00
66708;DHT22;53622;0.000;0.000;2022-07-12T10:40:11;21.30;88.30
66708;DHT22;53622;0.000;0.000;2022-07-12T10:42:41;21.30;88.70
66708;DHT22;53622;0.000;0.000;2022-07-12T10:45:32;21.30;89.10
66708;DHT22;53622;0.000;0.000;2022-07-12T10:48:04;21.30;89.50
66708;DHT22;53622;0.000;0.000;2022-07-12T10:50:56;21.30;89.90
66708;DHT22;53622;0.000;0.000;2022-07-12T10:53:30;21.30;89.20
66708;DHT22;53622;0.000;0.000;2022-07-12T10:56:09;21.30;88.90
66708;DHT22;53622;0.000;0.000;2022-07-12T10:58:40;21.40;88.50
66708;DHT22;53622;0.000;0.000;2022-07-12T11:01:11;21.40;88.40
66708;DHT22;53622;0.000;0.000;2022-07-12T11:03:45;21.40;88.20
66708;DHT22;53622;0.000;0.000;2022-07-12T11:06:16;21.40;88.30
66708;DHT22;53622;0.000;0.000;2022-07-12T11:08:48;21.40;88.30
66708;DHT22;53622;0.000;0.000;2022-07-12T11:11:18;21.40;88.40
66708;DHT22;53622;0.000;0.000;2022-07-12T11:13:48;21.50;88.40
66708;DHT22;53622;0.000;0.000;2022-07-12T11:16:17;21.40;88.50
66708;DHT22;53622;0.000;0.000;2022-07-12T11:18:49;21.50;88.90
66708;DHT22;53622;0.000;0.000;2022-07-12T11:21:19;21.50;88.90
66708;DHT22;53622;0.000;0.000;2022-07-12T11:23:49;21.50;89.00
66708;DHT22;53622;0.000;0.000;2022-07-12T11:26:18;21.50;88.80
66708;DHT22;53622;0.000;0.000;2022-07-12T11:28:48;21.50;88.40
66708;DHT22;53622;0.000;0.000;2022-07-12T11:31:18;21.60;88.70
66708;DHT22;53622;0.000;0.000;2022-07-12T11:33:50;21.60;88.90
66708;DHT22;53622;0.000;0.000;2022-07-12T11:36:20;21.70;88.80
66708;DHT22;53622;0.000;0.000;2022-07-12T11:38:49;21.70;89.50
66708;DHT22;53622;0.000;0.000;2022-07-12T11:41:19;21.70;90.10
66708;DHT22;53622;0.000;0.000;2022-07-12T11:43:50;21.70;89.60
66708;DHT22;53622;0.000;0.000;2022-07-12T11:46:19;21.70;89.70
66708;DHT22;53622;0.000;0.000;2022-07-12T11:48:50;21.70;90.00
66708;DHT22;53622;0.000;0.000;2022-07-12T11:51:20;21.70;90.00
66708;DHT22;53622;0.000;0.000;2022-07-12T11:53:51;21.70;90.10
66708;DHT22;53622;0.000;0.000;2022-07-12T11:56:29;21.70;90.20
66708;DHT22;53622;0.000;0.000;2022-07-12T11:59:00;21.70;90.20
66708;DHT22;53622;0.000;0.000;2022-07-12T12:01:29;21.70;90.30
66708;DHT22;53622;0.000;0.000;2022-07-12T12:04:00;21.70;90.40
66708;DHT22;53622;0.000;0.000;2022-07-12T12:06:30;21.70;90.50
66708;DHT22;53622;0.000;0.000;2022-07-12T12:09:05;21.70;90.50
66708;DHT22;53622;0.000;0.000;2022-07-12T12:11:34;21.70;90.60
66708;DHT22;53622;0.000;0.000;2022-07-12T12:14:04;21.80;90.60
66708;DHT22;53622;0.000;0.000;2022-07-12T12:16:34;21.70;90.80
66708;DHT22;53622;0.000;0.000;2022-07-12T12:19:10;21.70;90.90
66708;DHT22;53622;0.000;0.000;2022-07-12T12:21:40;21.70;90.60
66708;DHT22;53622;0.000;0.000;2022-07-12T12:24:10;21.80;90.20
66708;DHT22;53622;0.000;0.000;2022-07-12T12:26:39;21.80;89.90
66708;DHT22;53622;0.000;0.000;2022-07-12T12:29:09;21.80;89.80
66708;DHT22;53622;0.000;0.000;2022-07-12T12:31:38;21.70;90.10
66708;DHT22;53622;0.000;0.000;2022-07-12T12:34:13;21.70;90.30
66708;DHT22;53622;0.000;0.000;2022-07-12T12:36:42;21.80;90.40
66708;DHT22;53622;0.000;0.000;2022-07-12T12:39:12;21.80;90.30
66708;DHT22;53622;0.000;0.000;2022-07-12T12:41:42;21.80;90.20
66708;DHT22;53622;0.000;0.000;2022-07-12T12:44:12;21.80;90.30
66708;DHT22;53622;0.000;0.000;2022-07-12T12:46:44;21.80;90.40
66708;DHT22;53622;0.000;0.000;2022-07-12T12:49:16;21.80;90.20
66708;DHT22;53622;0.000;0.000;2022-07-12T12:51:53;21.80;90.00
66708;DHT22;53622;0.000;0.000;2022-07-12T12:54:33;21.80;89.80
66708;DHT22;53622;0.000;0.000;2022-07-12T12:57:03;21.80;89.80
66708;DHT22;53622;0.000;0.000;2022-07-12T12:59:33;21.80;89.80
66708;DHT22;53622;0.000;0.000;2022-07-12T13:02:04;21.80;89.80
66708;DHT22;53622;0.000;0.000;2022-07-12T13:04:36;21.80;89.70
66708;DHT22;53622;0.000;0.000;2022-07-12T13:07:06;21.80;89.70
66708;DHT22;53622;0.000;0.000;2022-07-12T13:09:40;21.70;89.40
66708;DHT22;53622;0.000;0.000;2022-07-12T13:12:10;21.70;89.30
66708;DHT22;53622;0.000;0.000;2022-07-12T13:14:39;21.80;89.40
66708;DHT22;53622;0.000;0.000;2022-07-12T13:17:09;21.80;89.20
66708;DHT22;53622;0.000;0.000;2022-07-12T13:19:39;21.80;89.10
66708;DHT22;53622;0.000;0.000;2022-07-12T13:22:09;21.80;88.90
66708;DHT22;53622;0.000;0.000;2022-07-12T13:24:38;21.80;88.90
66708;DHT22;53622;0.000;0.000;2022-07-12T13:27:07;21.80;88.90
66708;DHT22;53622;0.000;0.000;2022-07-12T13:29:37;21.80;88.70
66708;DHT22;53622;0.000;0.000;2022-07-12T13:32:07;21.80;88.70
66708;DHT22;53622;0.000;0.000;2022-07-12T13:34:36;21.80;88.60
66708;DHT22;53622;0.000;0.000;2022-07-12T13:37:07;21.80;88.60
66708;DHT22;53622;0.000;0.000;2022-07-12T13:39:37;21.80;88.50
66708;DHT22;53622;0.000;0.000;2022-07-12T13:42:23;21.80;88.50
66708;DHT22;53622;0.000;0.000;2022-07-12T13:44:53;21.80;88.50
66708;DHT22;53622;0.000;0.000;2022-07-12T13:47:23;21.80;89.20
66708;DHT22;53622;0.000;0.000;2022-07-12T13:49:53;21.80;88.40
66708;DHT22;53622;0.000;0.000;2022-07-12T13:52:26;21.80;88.30
66708;DHT22;53622;0.000;0.000;2022-07-12T13:54:56;21.80;88.20
66708;DHT22;53622;0.000;0.000;2022-07-12T13:57:25;21.80;88.20
66708;DHT22;53622;0.000;0.000;2022-07-12T13:59:57;21.80;88.20
66708;DHT22;53622;0.000;0.000;2022-07-12T14:02:27;21.80;88.10
66708;DHT22;53622;0.000;0.000;2022-07-12T14:04:56;21.80;88.00
66708;DHT22;53622;0.000;0.000;2022-07-12T14:07:27;21.80;88.10
66708;DHT22;53622;0.000;0.000;2022-07-12T14:09:56;21.80;88.00
66708;DHT22;53622;0.000;0.000;2022-07-12T14:12:26;21.80;88.00
66708;DHT22;53622;0.000;0.000;2022-07-12T14:14:55;21.80;87.90
66708;DHT22;53622;0.000;0.000;2022-07-12T14:17:48;21.80;87.90
66708;DHT22;53622;0.000;0.000;2022-07-12T14:20:19;21.90;87.90
66708;DHT22;53622;0.000;0.000;2022-07-12T14:22:51;21.80;87.80
66708;DHT22;53622;0.000;0.000;2022-07-12T14:25:21;21.90;87.80
66708;DHT22;53622;0.000;0.000;2022-07-12T14:27:50;21.80;87.80
66708;DHT22;53622;0.000;0.000;2022-07-12T14:30:20;21.80;87.80
66708;DHT22;53622;0.000;0.000;2022-07-12T14:32:50;21.80;87.70
66708;DHT22;53622;0.000;0.000;2022-07-12T14:35:20;21.90;87.80
66708;DHT22;53622;0.000;0.000;2022-07-12T14:37:51;21.90;87.70
66708;DHT22;53622;0.000;0.000;2022-07-12T14:40:20;21.90;87.70
66708;DHT22;53622;0.000;0.000;2022-07-12T14:42:51;21.90;87.80
66708;DHT22;53622;0.000;0.000;2022-07-12T14:45:22;21.90;87.80
66708;DHT22;53622;0.000;0.000;2022-07-12T14:47:51;21.90;87.70
66708;DHT22;53622;0.000;0.000;2022-07-12T14:50:20;21.90;87.70
66708;DHT22;53622;0.000;0.000;2022-07-12T14:52:51;21.90;87.70
66708;DHT22;53622;0.000;0.000;2022-07-12T14:55:21;21.90;87.70
66708;DHT22;53622;0.000;0.000;2022-07-12T14:57:51;21.90;87.70
66708;DHT22;53622;0.000;0.000;2022-07-12T15:00:20;21.90;87.70
66708;DHT22;53622;0.000;0.000;2022-07-12T15:02:50;21.90;87.70
66708;DHT22;53622;0.000;0.000;2022-07-12T15:05:27;21.90;87.60
66708;DHT22;53622;0.000;0.000;2022-07-12T15:07:58;21.90;87.60
66708;DHT22;53622;0.000;0.000;2022-07-12T15:10:27;21.90;87.50
66708;DHT22;53622;0.000;0.000;2022-07-12T15:12:58;21.90;87.50
66708;DHT22;53622;0.000;0.000;2022-07-12T15:15:27;21.90;87.50
66708;DHT22;53622;0.000;0.000;2022-07-12T15:17:56;21.90;87.50
66708;DHT22;53622;0.000;0.000;2022-07-12T15:20:26;21.90;87.50
66708;DHT22;53622;0.000;0.000;2022-07-12T15:23:02;21.90;87.40
66708;DHT22;53622;0.000;0.000;2022-07-12T15:25:31;21.90;87.40
66708;DHT22;53622;0.000;0.000;2022-07-12T15:28:01;22.00;87.50
66708;DHT22;53622;0.000;0.000;2022-07-12T15:30:30;22.00;87.40
66708;DHT22;53622;0.000;0.000;2022-07-12T15:32:59;21.90;87.30
66708;DHT22;53622;0.000;0.000;2022-07-12T15:35:29;22.00;87.40
66708;DHT22;53622;0.000;0.000;2022-07-12T15:37:58;22.00;88.00
66708;DHT22;53622;0.000;0.000;2022-07-12T15:40:29;22.00;87.80
66708;DHT22;53622;0.000;0.000;2022-07-12T15:42:58;22.00;87.80
66708;DHT22;53622;0.000;0.000;2022-07-12T15:45:30;22.00;87.90
66708;DHT22;53622;0.000;0.000;2022-07-12T15:47:59;22.00;87.80
66708;DHT22;53622;0.000;0.000;2022-07-12T15:50:29;22.00;87.90
66708;DHT22;53622;0.000;0.000;2022-07-12T15:52:59;22.00;87.90
66708;DHT22;53622;0.000;0.000;2022-07-12T15:56:02;22.00;87.90
66708;DHT22;53622;0.000;0.000;2022-07-12T15:59:40;22.00;87.90
66708;DHT22;53622;0.000;0.000;2022-07-12T16:02:13;22.00;87.90
66708;DHT22;53622;0.000;0.000;2022-07-12T16:04:50;22.10;87.90
66708;DHT22;53622;0.000;0.000;2022-07-12T16:07:19;22.10;87.80
66708;DHT22;53622;0.000;0.000;2022-07-12T16:09:48;22.10;87.70
66708;DHT22;53622;0.000;0.000;2022-07-12T16:12:19;22.10;87.70